Página principal
METAR-TAF:

METAR-TAF

Aeroportos :

Middleton Island, Alasca, Estados Unidos

latitude: 59-26N, longitude: 146-18W, altura: 27 m

Observação actual do tempo

O boletim foi feito há 2 horas e 23 minutos, às 13:51 UTC
Vento 7 kt de oeste
Temperatura 8°C
Humidade 93%
Pressão 1019 hPa
Visibilidade: 16.1 km
Encobertoa uma altura de 1400 ft

METAR: PAMD 191351Z AUTO 26007KT 10SM OVC014 08/07 A3009 RMK AO2 SLP178 T00830067

Hora: 08:14 (16:14 UTC)


TAF: em falta

Observações e previsões do tempo de mais de 4000 aeroportos (mensagens METAR e TAF).

As estações disponíveis são os pontos amarelos e vermelhos sobre o mapa.

Mova o rato sobre o mapa para ver o nome da estação.

Depois clique no ponto para visualizar as observações e previsões meteorológicas.

Para alterar o mapa : clique nos botões verdes com uma cruz preta para aumentar o zoom; no botão verde com uma pitada de zoom; ou nas setas verdes para mapas adjacentes.


METAR-TAF: